logo
Rechercher aéroport 
image banner adimage banner adimage banner ad
image banner ad

YTSI - Tasman Island

Situé à Cape Pillar, Australia

ICAO - , IATA -

Données fournies par Airmate  

Information générale

Coordonnées: S43°14'23" E148°0'9"
Élévation : 799 feet MSL.
Variation magnétique : 16° East
Voir autres Aéroports à Tasmania

Données opérationnelles

Special qualification required
Heure actuelle UTC:
Heure actuelle locale:
Météo à : YMHB - Hobart ( 60 km )
METAR: YMHB 171617Z AUTO 35003KT 6000 -SHRA BKN018 OVC026 OVC032 07/07 Q1021
TAF: TAF AMD YMHB 171622Z 1716/1812 31005KT 9999 -SHRA SCT020 BKN030 FM180300 21006KT 9999 -SHRA SCT030 SCT040 INTER 1716/1802 4000 SHRA BKN015 BKN025
Voir NOTAMs / SUP AIP / TFR affectant cet aéroport [VIEW]
Fréquences de communication: [VIEW]

Pistes:

Coordonnées de l'aéroport

Adresse: Cape Pillar Australia

Vue satellite de YTSI